Time;durP1;ratioP1;P1;durP2;ratioP2;P2;SDS_P1;SDS_P2;PMS_P1;PMS_P2;Temp;Humidity;BMP_temperature;BMP_pressure;BME280_temperature;BME280_humidity;BME280_pressure;Samples;Min_cycle;Max_cycle;Signal;HPM_P1;HPM_P2
2022/04/24 00:01:22;;;;;;;9.40;6.83;;;;;;;;;;6160538;23;20175;-84
2022/04/24 00:03:51;;;;;;;5.40;4.60;;;;;;;;;;6160433;23;20233;-84
2022/04/24 00:06:23;;;;;;;4.80;4.37;;;;;;;;;;6160143;23;20215;-84
2022/04/24 00:08:52;;;;;;;6.73;6.13;;;;;;;;;;6160772;23;20175;-84
2022/04/24 00:11:20;;;;;;;8.23;7.43;;;;;;;;;;6160486;23;20202;-84
2022/04/24 00:13:50;;;;;;;8.93;7.70;;;;;;;;;;6160196;23;20175;-84
2022/04/24 00:16:18;;;;;;;13.03;9.67;;;;;;;;;;6186153;23;20182;-85
2022/04/24 00:18:47;;;;;;;11.53;9.97;;;;;;;;;;6186356;23;20198;-84
2022/04/24 00:21:15;;;;;;;15.57;11.93;;;;;;;;;;6160090;23;20189;-84
2022/04/24 00:23:44;;;;;;;15.43;10.83;;;;;;;;;;6160421;23;20191;-85
2022/04/24 00:26:12;;;;;;;16.90;10.03;;;;;;;;;;6159997;23;20186;-84
2022/04/24 00:28:40;;;;;;;10.90;8.77;;;;;;;;;;6159979;23;20179;-84
2022/04/24 00:31:10;;;;;;;7.10;6.43;;;;;;;;;;6160056;23;20175;-84
2022/04/24 00:33:39;;;;;;;9.30;8.10;;;;;;;;;;6160219;23;20179;-84
2022/04/24 00:36:07;;;;;;;11.27;10.10;;;;;;;;;;6186990;23;20186;-85
2022/04/24 00:38:36;;;;;;;11.23;8.57;;;;;;;;;;6189853;23;20178;-84
2022/04/24 00:41:05;;;;;;;5.97;5.43;;;;;;;;;;6189819;23;20174;-84
2022/04/24 00:43:33;;;;;;;9.40;6.77;;;;;;;;;;6216172;23;20194;-84
2022/04/24 00:46:09;;;;;;;11.93;8.67;;;;;;;;;;6190108;23;20175;-84
2022/04/24 00:48:40;;;;;;;12.60;9.87;;;;;;;;;;6189747;23;20174;-84
2022/04/24 00:51:11;;;;;;;10.13;8.90;;;;;;;;;;6190005;23;20174;-84
2022/04/24 00:53:40;;;;;;;11.03;9.37;;;;;;;;;;6189968;23;20201;-84
2022/04/24 00:56:09;;;;;;;9.63;7.97;;;;;;;;;;6189185;23;20228;-84
2022/04/24 00:58:38;;;;;;;8.90;7.67;;;;;;;;;;6189769;23;20205;-85
2022/04/24 01:01:06;;;;;;;11.77;9.47;;;;;;;;;;6190176;23;20175;-84
2022/04/24 01:03:35;;;;;;;9.03;6.97;;;;;;;;;;6214766;23;20174;-84
2022/04/24 01:06:05;;;;;;;8.37;5.40;;;;;;;;;;6189518;23;20198;-84
2022/04/24 01:08:35;;;;;;;4.63;4.27;;;;;;;;;;6189733;23;20177;-84
2022/04/24 01:11:04;;;;;;;11.73;7.83;;;;;;;;;;6189713;23;20202;-84
2022/04/24 01:13:33;;;;;;;10.63;8.20;;;;;;;;;;6189749;23;20178;-84
2022/04/24 01:16:01;;;;;;;7.33;6.33;;;;;;;;;;6189755;23;20181;-84
2022/04/24 01:18:30;;;;;;;8.70;7.67;;;;;;;;;;6189479;23;20175;-84
2022/04/24 01:21:07;;;;;;;8.10;4.53;;;;;;;;;;6189377;23;20182;-84
2022/04/24 01:23:38;;;;;;;5.17;4.70;;;;;;;;;;6189635;23;20174;-84
2022/04/24 01:26:06;;;;;;;5.63;5.13;;;;;;;;;;6189776;23;20178;-84
2022/04/24 01:28:35;;;;;;;9.20;7.60;;;;;;;;;;6189574;23;20175;-84
2022/04/24 01:31:03;;;;;;;6.20;5.60;;;;;;;;;;6215488;23;20170;-84
2022/04/24 01:33:32;;;;;;;11.60;7.43;;;;;;;;;;6188885;23;20170;-84
2022/04/24 01:36:02;;;;;;;9.40;8.10;;;;;;;;;;6189459;23;20174;-84
2022/04/24 01:38:30;;;;;;;7.23;6.50;;;;;;;;;;6216378;23;20202;-84
2022/04/24 01:40:59;;;;;;;7.00;6.33;;;;;;;;;;6215681;23;20174;-83
2022/04/24 01:43:28;;;;;;;8.20;6.40;;;;;;;;;;6189359;23;20239;-83
2022/04/24 01:45:56;;;;;;;6.53;5.23;;;;;;;;;;6189196;23;20194;-83
2022/04/24 01:48:25;;;;;;;8.43;6.63;;;;;;;;;;6189040;23;20181;-83
2022/04/24 01:50:54;;;;;;;9.23;6.00;;;;;;;;;;6189390;23;20182;-83
2022/04/24 01:53:24;;;;;;;7.50;6.73;;;;;;;;;;6188955;23;20182;-84
2022/04/24 01:55:53;;;;;;;12.80;10.80;;;;;;;;;;6189037;23;20174;-84
2022/04/24 01:58:21;;;;;;;11.33;8.83;;;;;;;;;;6189439;23;20178;-83
2022/04/24 02:00:49;;;;;;;6.30;5.30;;;;;;;;;;6189398;23;20178;-83
2022/04/24 02:03:18;;;;;;;7.93;7.17;;;;;;;;;;6189070;23;20368;-85
2022/04/24 02:05:47;;;;;;;6.53;5.93;;;;;;;;;;6188612;23;20225;-83
2022/04/24 02:08:15;;;;;;;6.47;5.60;;;;;;;;;;6188673;23;20178;-84
2022/04/24 02:10:45;;;;;;;7.20;5.87;;;;;;;;;;6189264;23;20221;-85
2022/04/24 02:13:14;;;;;;;8.47;7.40;;;;;;;;;;6189279;23;20181;-84
2022/04/24 02:15:42;;;;;;;5.10;4.50;;;;;;;;;;6188398;23;20174;-85
2022/04/24 02:18:11;;;;;;;10.30;5.53;;;;;;;;;;6188531;23;20280;-85
2022/04/24 02:20:39;;;;;;;8.67;6.63;;;;;;;;;;6189227;23;20242;-85
2022/04/24 02:23:08;;;;;;;6.43;5.63;;;;;;;;;;6189180;23;20177;-84
2022/04/24 02:25:37;;;;;;;8.13;6.47;;;;;;;;;;6188877;23;20236;-83
2022/04/24 02:28:07;;;;;;;8.50;7.00;;;;;;;;;;6215195;23;20179;-84
2022/04/24 02:30:36;;;;;;;7.00;6.30;;;;;;;;;;6215810;23;20170;-84
2022/04/24 02:33:04;;;;;;;4.80;3.00;;;;;;;;;;6188672;23;20205;-84
2022/04/24 02:35:33;;;;;;;5.33;4.33;;;;;;;;;;6214249;23;20173;-85
2022/04/24 02:38:01;;;;;;;9.37;6.63;;;;;;;;;;6188493;23;20210;-84
2022/04/24 02:40:29;;;;;;;8.60;7.60;;;;;;;;;;6189037;23;20174;-84
2022/04/24 02:42:58;;;;;;;3.47;3.13;;;;;;;;;;6188467;23;20256;-84
2022/04/24 02:45:28;;;;;;;5.03;4.00;;;;;;;;;;6188783;23;20186;-84
2022/04/24 02:47:56;;;;;;;3.33;3.10;;;;;;;;;;6188711;23;20181;-84
2022/04/24 02:50:24;;;;;;;6.00;5.37;;;;;;;;;;6188954;23;20177;-83
2022/04/24 02:52:54;;;;;;;8.63;5.70;;;;;;;;;;6214870;23;20228;-84
2022/04/24 02:55:22;;;;;;;11.13;7.67;;;;;;;;;;6215363;23;20177;-84
2022/04/24 02:57:51;;;;;;;4.43;3.97;;;;;;;;;;6188902;23;20182;-83
2022/04/24 03:00:22;;;;;;;7.60;5.70;;;;;;;;;;6188523;23;20367;-84
2022/04/24 03:02:52;;;;;;;6.83;4.47;;;;;;;;;;6188762;23;20208;-83
2022/04/24 03:05:22;;;;;;;4.47;4.07;;;;;;;;;;6188881;23;20209;-84
2022/04/24 03:07:51;;;;;;;5.70;4.13;;;;;;;;;;6188736;23;20174;-84
2022/04/24 03:10:19;;;;;;;5.00;4.50;;;;;;;;;;6188533;23;20185;-84
2022/04/24 03:12:48;;;;;;;6.47;5.47;;;;;;;;;;6213971;23;20181;-84
2022/04/24 03:15:17;;;;;;;8.30;6.43;;;;;;;;;;6188716;23;20260;-84
2022/04/24 03:17:45;;;;;;;5.87;4.07;;;;;;;;;;6188758;23;20171;-84
2022/04/24 03:20:15;;;;;;;5.80;4.90;;;;;;;;;;6188853;23;20194;-84
2022/04/24 03:22:44;;;;;;;6.10;5.03;;;;;;;;;;6188949;23;20178;-84
2022/04/24 03:25:12;;;;;;;7.37;5.60;;;;;;;;;;6213570;23;20194;-84
2022/04/24 03:27:40;;;;;;;5.87;5.23;;;;;;;;;;6215184;23;20178;-84
2022/04/24 03:30:10;;;;;;;6.70;4.37;;;;;;;;;;6215473;23;20189;-84
2022/04/24 03:32:38;;;;;;;6.27;5.67;;;;;;;;;;6190692;23;20178;-84
2022/04/24 03:35:08;;;;;;;3.07;2.87;;;;;;;;;;6190620;23;20170;-84
2022/04/24 03:37:38;;;;;;;5.63;3.90;;;;;;;;;;6215333;23;20206;-84
2022/04/24 03:40:08;;;;;;;5.73;3.03;;;;;;;;;;6190575;23;20179;-83
2022/04/24 03:42:37;;;;;;;3.13;2.83;;;;;;;;;;6190422;23;20174;-83
2022/04/24 03:45:09;;;;;;;5.47;4.53;;;;;;;;;;6216442;23;20189;-84
2022/04/24 03:47:37;;;;;;;4.63;4.20;;;;;;;;;;6190424;23;20174;-84
2022/04/24 03:50:06;;;;;;;5.37;4.33;;;;;;;;;;6190693;23;20176;-84
2022/04/24 03:52:35;;;;;;;4.47;4.00;;;;;;;;;;6190565;23;20185;-84
2022/04/24 03:55:05;;;;;;;3.67;3.33;;;;;;;;;;6216821;23;20171;-84
2022/04/24 03:57:34;;;;;;;4.43;3.67;;;;;;;;;;6190505;23;20176;-84
2022/04/24 04:00:02;;;;;;;4.40;3.53;;;;;;;;;;6190167;23;20182;-84
2022/04/24 04:02:31;;;;;;;5.53;4.93;;;;;;;;;;6190519;23;20180;-84
2022/04/24 04:05:00;;;;;;;5.40;4.87;;;;;;;;;;6216412;23;20179;-84
2022/04/24 04:07:28;;;;;;;5.77;4.67;;;;;;;;;;6190107;23;20189;-84
2022/04/24 04:09:57;;;;;;;7.13;4.83;;;;;;;;;;6190177;23;20183;-84
2022/04/24 04:12:28;;;;;;;6.23;5.33;;;;;;;;;;6190521;23;20200;-84
2022/04/24 04:14:57;;;;;;;5.20;4.70;;;;;;;;;;6190495;23;20181;-84
2022/04/24 04:17:25;;;;;;;6.70;4.83;;;;;;;;;;6216813;23;20171;-85
2022/04/24 04:19:54;;;;;;;9.80;5.87;;;;;;;;;;6190562;23;20188;-84
2022/04/24 04:22:22;;;;;;;4.57;4.10;;;;;;;;;;6216369;23;20174;-84
2022/04/24 04:24:51;;;;;;;5.53;4.23;;;;;;;;;;6190403;23;20181;-84
2022/04/24 04:27:20;;;;;;;6.77;4.70;;;;;;;;;;6190215;23;20201;-84
2022/04/24 04:29:50;;;;;;;7.57;5.90;;;;;;;;;;6190065;23;20179;-84
2022/04/24 04:32:18;;;;;;;7.33;6.63;;;;;;;;;;6189757;23;20258;-84
2022/04/24 04:34:46;;;;;;;5.23;4.73;;;;;;;;;;6189717;23;20185;-84
2022/04/24 04:37:15;;;;;;;6.70;6.03;;;;;;;;;;6215940;23;20208;-84
2022/04/24 04:39:43;;;;;;;9.07;6.07;;;;;;;;;;6189747;23;20181;-83
2022/04/24 04:42:12;;;;;;;3.90;3.23;;;;;;;;;;6189435;23;20179;-84
2022/04/24 04:44:40;;;;;;;4.30;3.90;;;;;;;;;;6189773;23;20180;-84
2022/04/24 04:47:11;;;;;;;5.37;4.83;;;;;;;;;;6190120;23;20191;-84
2022/04/24 04:49:39;;;;;;;6.97;6.33;;;;;;;;;;6189974;23;20170;-84
2022/04/24 04:52:08;;;;;;;7.10;4.70;;;;;;;;;;6189731;23;20181;-84
2022/04/24 04:54:37;;;;;;;8.43;5.80;;;;;;;;;;6189919;23;20206;-84
2022/04/24 04:57:06;;;;;;;7.53;6.33;;;;;;;;;;6189424;23;20184;-84
2022/04/24 04:59:34;;;;;;;9.63;6.87;;;;;;;;;;6189641;23;20179;-84
2022/04/24 05:02:03;;;;;;;7.00;4.43;;;;;;;;;;6189647;23;20184;-84
2022/04/24 05:04:35;;;;;;;5.57;4.93;;;;;;;;;;6214823;23;20228;-84
2022/04/24 05:07:04;;;;;;;8.37;4.67;;;;;;;;;;6189320;23;20244;-84
2022/04/24 05:09:33;;;;;;;7.37;5.07;;;;;;;;;;6189759;23;20181;-84
2022/04/24 05:12:01;;;;;;;5.77;5.10;;;;;;;;;;6215822;23;20174;-85
2022/04/24 05:14:29;;;;;;;9.67;6.70;;;;;;;;;;6189826;23;20176;-84
2022/04/24 05:16:58;;;;;;;6.33;4.53;;;;;;;;;;6215628;23;20176;-84
2022/04/24 05:19:27;;;;;;;10.47;8.13;;;;;;;;;;6189325;23;20184;-84
2022/04/24 05:21:56;;;;;;;5.70;4.87;;;;;;;;;;6189244;23;20182;-84
2022/04/24 05:24:25;;;;;;;6.70;6.10;;;;;;;;;;6189747;23;20230;-84
2022/04/24 05:26:54;;;;;;;9.30;6.10;;;;;;;;;;6189617;23;20201;-84
2022/04/24 05:29:22;;;;;;;6.93;6.00;;;;;;;;;;6189722;23;20181;-84
2022/04/24 05:31:50;;;;;;;5.47;4.97;;;;;;;;;;6214774;23;20186;-84
2022/04/24 05:34:19;;;;;;;7.13;6.17;;;;;;;;;;6189634;23;20246;-84
2022/04/24 05:36:47;;;;;;;7.60;6.10;;;;;;;;;;6189269;23;20209;-83
2022/04/24 05:39:17;;;;;;;6.27;5.40;;;;;;;;;;6189696;23;20181;-84
2022/04/24 05:41:45;;;;;;;5.23;4.70;;;;;;;;;;6189372;23;20177;-84
2022/04/24 05:44:14;;;;;;;7.03;6.40;;;;;;;;;;6189578;23;20181;-84
2022/04/24 05:46:42;;;;;;;5.83;5.23;;;;;;;;;;6189494;23;20205;-84
2022/04/24 05:49:11;;;;;;;5.40;4.13;;;;;;;;;;6189288;23;20185;-84
2022/04/24 05:51:39;;;;;;;7.60;5.03;;;;;;;;;;6189091;23;20187;-84
2022/04/24 05:54:07;;;;;;;4.70;4.27;;;;;;;;;;6215348;23;20197;-85
2022/04/24 05:56:38;;;;;;;4.20;3.80;;;;;;;;;;6189744;23;20186;-84
2022/04/24 05:59:06;;;;;;;8.90;6.40;;;;;;;;;;6215286;23;20170;-84
2022/04/24 06:01:35;;;;;;;5.37;4.47;;;;;;;;;;6189066;23;20181;-83
2022/04/24 06:04:04;;;;;;;7.60;5.90;;;;;;;;;;6189364;23;20377;-83
2022/04/24 06:06:32;;;;;;;5.03;4.53;;;;;;;;;;6188396;23;20202;-84
2022/04/24 06:09:01;;;;;;;8.80;6.67;;;;;;;;;;6188764;23;20173;-84
2022/04/24 06:11:29;;;;;;;6.63;6.03;;;;;;;;;;6189116;23;20174;-83
2022/04/24 06:13:59;;;;;;;5.83;5.23;;;;;;;;;;6215352;23;20178;-84
2022/04/24 06:16:28;;;;;;;6.83;6.03;;;;;;;;;;6189263;23;20202;-83
2022/04/24 06:18:56;;;;;;;6.63;5.87;;;;;;;;;;6188722;23;20174;-84
2022/04/24 06:21:24;;;;;;;4.33;3.43;;;;;;;;;;6189127;23;20186;-84
2022/04/24 06:23:53;;;;;;;5.13;4.47;;;;;;;;;;6188681;23;20175;-84
2022/04/24 06:26:21;;;;;;;9.30;6.80;;;;;;;;;;6188681;23;20189;-84
2022/04/24 06:28:50;;;;;;;8.80;7.07;;;;;;;;;;6189462;23;20182;-83
2022/04/24 06:31:19;;;;;;;6.30;4.90;;;;;;;;;;6215336;23;20175;-84
2022/04/24 06:33:48;;;;;;;7.57;6.87;;;;;;;;;;6189168;23;20170;-84
2022/04/24 06:36:16;;;;;;;9.97;7.90;;;;;;;;;;6188302;23;20265;-84
2022/04/24 06:38:45;;;;;;;5.73;5.13;;;;;;;;;;6215468;23;20246;-83
2022/04/24 06:41:13;;;;;;;13.30;5.43;;;;;;;;;;6188835;23;20174;-84
2022/04/24 06:43:42;;;;;;;7.07;6.20;;;;;;;;;;6214186;23;20183;-84
2022/04/24 06:46:10;;;;;;;7.40;4.63;;;;;;;;;;6214951;23;20179;-84
2022/04/24 06:48:40;;;;;;;6.23;5.60;;;;;;;;;;6189142;23;20248;-84
2022/04/24 06:51:08;;;;;;;7.33;6.40;;;;;;;;;;6188766;23;20174;-84
2022/04/24 06:53:38;;;;;;;7.00;6.40;;;;;;;;;;6213902;23;20178;-84
2022/04/24 06:56:06;;;;;;;6.90;6.30;;;;;;;;;;6213551;23;20171;-84
2022/04/24 06:58:35;;;;;;;6.03;4.73;;;;;;;;;;6188770;23;20177;-84
2022/04/24 07:01:10;;;;;;;5.03;4.57;;;;;;;;;;6188832;23;20177;-84
2022/04/24 07:03:40;;;;;;;7.57;6.77;;;;;;;;;;6214883;23;20177;-84
2022/04/24 07:06:08;;;;;;;7.63;6.83;;;;;;;;;;6214943;23;20237;-83
2022/04/24 07:08:38;;;;;;;7.63;6.83;;;;;;;;;;6188632;23;20201;-84
2022/04/24 07:11:06;;;;;;;8.07;6.03;;;;;;;;;;6188070;23;20181;-84
2022/04/24 07:13:36;;;;;;;9.93;5.80;;;;;;;;;;6188462;23;20181;-84
2022/04/24 07:16:05;;;;;;;5.40;4.87;;;;;;;;;;6188518;23;20253;-84
2022/04/24 07:18:33;;;;;;;5.40;4.90;;;;;;;;;;6188133;23;20174;-86
2022/04/24 07:21:03;;;;;;;8.17;6.40;;;;;;;;;;6188424;23;20174;-84
2022/04/24 07:23:31;;;;;;;6.93;6.33;;;;;;;;;;6215070;23;20195;-84
2022/04/24 07:26:00;;;;;;;9.60;5.67;;;;;;;;;;6188170;23;20194;-84
2022/04/24 07:28:30;;;;;;;7.10;5.60;;;;;;;;;;6188478;23;20198;-84
2022/04/24 07:30:58;;;;;;;5.53;4.90;;;;;;;;;;6189029;23;20175;-83
2022/04/24 07:33:27;;;;;;;8.50;6.73;;;;;;;;;;6215083;23;20173;-84
2022/04/24 07:35:55;;;;;;;8.20;7.40;;;;;;;;;;6188495;23;20178;-84
2022/04/24 07:38:25;;;;;;;5.97;5.37;;;;;;;;;;6188445;23;20198;-84
2022/04/24 07:40:54;;;;;;;5.27;4.83;;;;;;;;;;6188568;23;20182;-84
2022/04/24 07:43:22;;;;;;;6.53;5.87;;;;;;;;;;6214923;23;20171;-84
2022/04/24 07:45:50;;;;;;;7.50;5.30;;;;;;;;;;6188803;23;20182;-83
2022/04/24 07:48:20;;;;;;;6.43;5.27;;;;;;;;;;6187726;23;20195;-84
2022/04/24 07:50:49;;;;;;;6.20;5.37;;;;;;;;;;6188630;23;20178;-84
2022/04/24 07:53:18;;;;;;;5.23;4.50;;;;;;;;;;6214635;23;20196;-84
2022/04/24 07:55:49;;;;;;;6.70;5.27;;;;;;;;;;6188696;23;20175;-84
2022/04/24 07:58:17;;;;;;;8.37;5.07;;;;;;;;;;6214372;23;20177;-84
2022/04/24 08:00:47;;;;;;;6.57;5.67;;;;;;;;;;6214595;23;20181;-84
2022/04/24 08:03:19;;;;;;;6.13;4.80;;;;;;;;;;6214480;23;20202;-85
2022/04/24 08:05:49;;;;;;;6.17;5.53;;;;;;;;;;6214436;23;20190;-84
2022/04/24 08:08:18;;;;;;;6.13;5.50;;;;;;;;;;6188409;23;20197;-85
2022/04/24 08:10:49;;;;;;;7.67;6.80;;;;;;;;;;6188634;23;20179;-84
2022/04/24 08:13:18;;;;;;;7.27;4.80;;;;;;;;;;6188567;23;20206;-85
2022/04/24 08:15:47;;;;;;;7.80;5.70;;;;;;;;;;6190407;23;20175;-84
2022/04/24 08:18:16;;;;;;;5.00;4.50;;;;;;;;;;6189915;23;20254;-85
2022/04/24 08:20:45;;;;;;;5.67;4.73;;;;;;;;;;6190000;23;20185;-85
2022/04/24 08:23:15;;;;;;;7.23;6.53;;;;;;;;;;6190235;23;20178;-84
2022/04/24 08:25:44;;;;;;;9.00;6.70;;;;;;;;;;6189768;23;20203;-85
2022/04/24 08:28:14;;;;;;;5.03;3.60;;;;;;;;;;6216397;23;20187;-85
2022/04/24 08:30:42;;;;;;;6.80;5.80;;;;;;;;;;6189792;23;20183;-85
2022/04/24 08:33:11;;;;;;;5.77;5.17;;;;;;;;;;6190046;23;20167;-84
2022/04/24 08:35:40;;;;;;;6.50;4.97;;;;;;;;;;6190138;23;20178;-84
2022/04/24 08:38:09;;;;;;;11.03;7.00;;;;;;;;;;6189749;23;20281;-85
2022/04/24 08:40:37;;;;;;;5.43;4.93;;;;;;;;;;6190010;23;20686;-85
2022/04/24 08:43:06;;;;;;;6.47;5.70;;;;;;;;;;6190154;23;20182;-84
2022/04/24 08:45:35;;;;;;;8.57;5.67;;;;;;;;;;6189747;23;20181;-84
2022/04/24 08:48:04;;;;;;;6.27;5.67;;;;;;;;;;6189793;23;20196;-84
2022/04/24 08:50:33;;;;;;;5.93;5.33;;;;;;;;;;6190070;23;20179;-84
2022/04/24 08:53:02;;;;;;;9.13;4.83;;;;;;;;;;6189825;23;20185;-84
2022/04/24 08:55:31;;;;;;;7.13;6.47;;;;;;;;;;6189790;23;20187;-85
2022/04/24 08:58:00;;;;;;;6.27;4.83;;;;;;;;;;6189740;23;20170;-84
2022/04/24 09:00:29;;;;;;;4.73;4.27;;;;;;;;;;6216403;23;20180;-84
2022/04/24 09:02:59;;;;;;;6.47;5.13;;;;;;;;;;6189363;23;20179;-84
2022/04/24 09:05:30;;;;;;;6.10;4.93;;;;;;;;;;6189324;23;20199;-84
2022/04/24 09:08:06;;;;;;;6.77;5.17;;;;;;;;;;6189868;23;20206;-85
2022/04/24 09:10:56;;;;;;;3.97;3.53;;;;;;;;;;6189442;23;20176;-84
2022/04/24 09:13:28;;;;;;;5.33;3.63;;;;;;;;;;6189871;23;20180;-84
2022/04/24 09:15:57;;;;;;;5.70;5.10;;;;;;;;;;6216166;23;20200;-84
2022/04/24 09:18:37;;;;;;;6.53;5.80;;;;;;;;;;6189589;23;20175;-84
2022/04/24 09:21:05;;;;;;;7.17;5.20;;;;;;;;;;6189977;23;20180;-84
2022/04/24 09:23:37;;;;;;;6.63;4.90;;;;;;;;;;6189604;23;20246;-85
2022/04/24 09:26:06;;;;;;;5.03;4.43;;;;;;;;;;6189467;23;20227;-83
2022/04/24 09:28:41;;;;;;;5.07;4.67;;;;;;;;;;6215943;23;20219;-84
2022/04/24 09:31:10;;;;;;;8.27;7.00;;;;;;;;;;6216072;23;20177;-84
2022/04/24 09:33:41;;;;;;;7.13;5.77;;;;;;;;;;6189503;23;20267;-84
2022/04/24 09:36:09;;;;;;;6.97;5.83;;;;;;;;;;6189555;23;20176;-84
2022/04/24 09:38:42;;;;;;;5.20;4.77;;;;;;;;;;6215226;23;20284;-84
2022/04/24 09:41:18;;;;;;;5.37;4.33;;;;;;;;;;6215852;23;20204;-84
2022/04/24 09:43:47;;;;;;;7.17;5.90;;;;;;;;;;6189479;23;20184;-84
2022/04/24 09:46:15;;;;;;;9.37;7.80;;;;;;;;;;6189370;23;20176;-84
2022/04/24 09:48:52;;;;;;;6.90;4.80;;;;;;;;;;6188805;23;20193;-85
2022/04/24 09:51:21;;;;;;;7.63;5.07;;;;;;;;;;6189291;23;20218;-86
2022/04/24 09:53:50;;;;;;;5.67;4.87;;;;;;;;;;6189357;23;20177;-84
2022/04/24 09:56:19;;;;;;;9.10;5.93;;;;;;;;;;6189353;23;20180;-84
2022/04/24 09:58:48;;;;;;;6.20;4.90;;;;;;;;;;6189198;23;20237;-84
2022/04/24 10:01:18;;;;;;;7.63;4.43;;;;;;;;;;6214163;23;20482;-84
2022/04/24 10:03:48;;;;;;;8.17;5.97;;;;;;;;;;6215760;23;20195;-84
2022/04/24 10:06:18;;;;;;;7.13;6.53;;;;;;;;;;6189264;23;20200;-84
2022/04/24 10:08:47;;;;;;;4.77;4.27;;;;;;;;;;6189269;23;20197;-84
2022/04/24 10:11:16;;;;;;;6.60;4.80;;;;;;;;;;6189322;23;20181;-84
2022/04/24 10:13:47;;;;;;;6.40;5.43;;;;;;;;;;6189066;23;20188;-84
2022/04/24 10:16:21;;;;;;;7.20;5.87;;;;;;;;;;6215667;23;20208;-84
2022/04/24 10:18:54;;;;;;;7.00;3.30;;;;;;;;;;6189256;23;20401;-84
2022/04/24 10:21:38;;;;;;;6.00;3.70;;;;;;;;;;6214193;23;20184;-84
2022/04/24 10:24:09;;;;;;;6.00;4.43;;;;;;;;;;6188930;23;20176;-84
2022/04/24 10:26:37;;;;;;;4.77;4.37;;;;;;;;;;6189361;23;20240;-84
2022/04/24 10:29:07;;;;;;;6.20;5.57;;;;;;;;;;6188726;23;20190;-84
2022/04/24 10:31:43;;;;;;;8.90;5.37;;;;;;;;;;6188801;23;20173;-84
2022/04/24 10:34:14;;;;;;;6.30;3.97;;;;;;;;;;6188818;23;20184;-84
2022/04/24 10:36:56;;;;;;;8.37;4.53;;;;;;;;;;6213255;23;20185;-84
2022/04/24 10:39:26;;;;;;;6.93;4.73;;;;;;;;;;6188891;23;20180;-84
2022/04/24 10:42:01;;;;;;;6.93;5.77;;;;;;;;;;6188722;23;20180;-84
2022/04/24 10:44:30;;;;;;;3.80;3.50;;;;;;;;;;6188942;23;20184;-84
2022/04/24 10:47:00;;;;;;;3.53;3.20;;;;;;;;;;6189157;23;20189;-84
2022/04/24 10:49:35;;;;;;;5.07;3.73;;;;;;;;;;6188485;23;20201;-84
2022/04/24 10:52:05;;;;;;;5.07;4.03;;;;;;;;;;6215124;23;20188;-84
2022/04/24 10:54:34;;;;;;;2.90;2.40;;;;;;;;;;6188512;23;20176;-84
2022/04/24 10:57:04;;;;;;;6.40;3.10;;;;;;;;;;6189326;23;20629;-85
2022/04/24 10:59:44;;;;;;;4.10;3.80;;;;;;;;;;6188555;23;20177;-84
2022/04/24 11:02:12;;;;;;;3.47;2.50;;;;;;;;;;6189221;23;20178;-84
2022/04/24 11:04:43;;;;;;;3.83;3.03;;;;;;;;;;6214904;23;20252;-84
2022/04/24 11:07:21;;;;;;;3.80;2.97;;;;;;;;;;6188720;23;20207;-85
2022/04/24 11:09:49;;;;;;;3.00;2.67;;;;;;;;;;6188612;23;20239;-84
2022/04/24 11:12:18;;;;;;;2.77;2.47;;;;;;;;;;6214674;23;20181;-85
2022/04/24 11:14:46;;;;;;;3.93;2.67;;;;;;;;;;6188915;23;20185;-84
2022/04/24 11:17:14;;;;;;;2.00;1.90;;;;;;;;;;6214775;23;20182;-84
2022/04/24 11:19:44;;;;;;;2.47;2.13;;;;;;;;;;6214015;23;20166;-84
2022/04/24 11:22:13;;;;;;;3.07;2.77;;;;;;;;;;6188407;23;20201;-84
2022/04/24 11:24:46;;;;;;;5.80;2.73;;;;;;;;;;6214717;23;20170;-84
2022/04/24 11:27:16;;;;;;;2.93;2.63;;;;;;;;;;6188414;23;20181;-84
2022/04/24 11:29:45;;;;;;;3.00;2.73;;;;;;;;;;6188600;23;20197;-85
2022/04/24 11:32:13;;;;;;;2.93;2.40;;;;;;;;;;6188601;23;20177;-84
2022/04/24 11:34:43;;;;;;;3.00;2.70;;;;;;;;;;6188350;23;20186;-85
2022/04/24 11:37:13;;;;;;;3.80;2.97;;;;;;;;;;6214936;23;20232;-84
2022/04/24 11:39:42;;;;;;;2.53;2.33;;;;;;;;;;6214810;23;20170;-85
2022/04/24 11:42:10;;;;;;;2.70;2.50;;;;;;;;;;6188729;23;20178;-84
2022/04/24 11:50:14;;;;;;;2.80;2.60;;;;;;;;;;6189718;23;20203;-85
2022/04/24 11:53:04;;;;;;;2.77;2.30;;;;;;;;;;6190127;23;20178;-84
2022/04/24 11:58:15;;;;;;;2.30;1.93;;;;;;;;;;6188866;23;20174;-84
2022/04/24 12:00:45;;;;;;;1.83;1.73;;;;;;;;;;6190852;23;20174;-84
2022/04/24 12:03:14;;;;;;;1.83;1.73;;;;;;;;;;6190366;23;20186;-84
2022/04/24 12:05:43;;;;;;;3.20;1.77;;;;;;;;;;6215212;23;20230;-85
2022/04/24 12:08:13;;;;;;;2.63;1.83;;;;;;;;;;6190469;23;20203;-85
2022/04/24 12:10:44;;;;;;;2.27;1.83;;;;;;;;;;6215577;23;20197;-85
2022/04/24 12:13:13;;;;;;;2.20;2.00;;;;;;;;;;6190134;23;20253;-85
2022/04/24 12:15:50;;;;;;;2.07;1.97;;;;;;;;;;6190576;23;20177;-84
2022/04/24 12:18:21;;;;;;;7.70;2.13;;;;;;;;;;6190228;23;20174;-84
2022/04/24 12:20:50;;;;;;;2.10;1.90;;;;;;;;;;6216622;23;20168;-85
2022/04/24 12:23:20;;;;;;;4.47;2.90;;;;;;;;;;6190312;23;20521;-85
2022/04/24 12:25:50;;;;;;;2.60;2.27;;;;;;;;;;6190039;23;20273;-84
2022/04/24 12:28:27;;;;;;;2.17;1.87;;;;;;;;;;6190354;23;20188;-84
2022/04/24 12:30:57;;;;;;;3.17;2.30;;;;;;;;;;6190350;23;20216;-84
2022/04/24 12:33:26;;;;;;;2.20;2.00;;;;;;;;;;6189791;23;20178;-84
2022/04/24 12:35:54;;;;;;;6.90;2.30;;;;;;;;;;6190483;23;20176;-84
2022/04/24 12:38:24;;;;;;;1.47;1.37;;;;;;;;;;6189539;23;20206;-85
2022/04/24 12:40:57;;;;;;;2.00;1.80;;;;;;;;;;6190210;23;20182;-84
2022/04/24 12:43:27;;;;;;;1.97;1.87;;;;;;;;;;6190213;23;20182;-84
2022/04/24 12:45:56;;;;;;;3.67;2.30;;;;;;;;;;6189573;23;20179;-84
2022/04/24 12:48:25;;;;;;;1.93;1.80;;;;;;;;;;6190291;23;20225;-84
2022/04/24 12:50:53;;;;;;;2.67;2.47;;;;;;;;;;6189975;23;20194;-85
2022/04/24 12:53:23;;;;;;;1.73;1.63;;;;;;;;;;6189741;23;20177;-84
2022/04/24 12:55:53;;;;;;;3.23;2.13;;;;;;;;;;6189443;23;20186;-84
2022/04/24 12:58:21;;;;;;;1.60;1.50;;;;;;;;;;6189676;23;20186;-84
2022/04/24 13:00:50;;;;;;;2.00;1.67;;;;;;;;;;6189436;23;20205;-86
2022/04/24 13:03:18;;;;;;;2.43;2.23;;;;;;;;;;6189658;23;20178;-85
2022/04/24 13:05:47;;;;;;;3.43;2.70;;;;;;;;;;6190125;23;20195;-85
2022/04/24 13:08:25;;;;;;;3.20;2.30;;;;;;;;;;6190199;23;20277;-85
2022/04/24 13:10:55;;;;;;;5.43;3.30;;;;;;;;;;6214787;23;20195;-85
2022/04/24 13:13:24;;;;;;;2.70;1.90;;;;;;;;;;6189595;23;20174;-84
2022/04/24 13:18:36;;;;;;;3.17;2.70;;;;;;;;;;6188287;23;20185;-85
2022/04/24 13:21:04;;;;;;;2.50;2.27;;;;;;;;;;6189460;23;20170;-85
2022/04/24 13:23:33;;;;;;;2.43;2.00;;;;;;;;;;6189663;23;20261;-84
2022/04/24 13:26:03;;;;;;;4.50;2.10;;;;;;;;;;6189634;23;20184;-85
2022/04/24 13:28:33;;;;;;;2.17;2.00;;;;;;;;;;6189463;23;20178;-85
2022/04/24 13:31:01;;;;;;;5.93;2.87;;;;;;;;;;6215532;23;20197;-85
2022/04/24 13:33:30;;;;;;;3.00;2.60;;;;;;;;;;6189388;23;20209;-85
2022/04/24 13:36:00;;;;;;;2.57;2.37;;;;;;;;;;6189228;23;20181;-84
2022/04/24 13:38:29;;;;;;;4.20;2.77;;;;;;;;;;6189280;23;20206;-85
2022/04/24 13:41:00;;;;;;;2.90;2.37;;;;;;;;;;6214342;23;20175;-84
2022/04/24 13:43:32;;;;;;;1.97;1.87;;;;;;;;;;6189853;23;20171;-84
2022/04/24 13:46:00;;;;;;;3.03;2.50;;;;;;;;;;6189537;23;20178;-85
2022/04/24 13:48:30;;;;;;;5.73;3.13;;;;;;;;;;6189556;23;20221;-85
2022/04/24 13:50:59;;;;;;;4.47;2.40;;;;;;;;;;6189111;23;20198;-84
2022/04/24 13:53:28;;;;;;;3.97;2.50;;;;;;;;;;6189243;23;20185;-85
2022/04/24 13:55:57;;;;;;;3.07;2.77;;;;;;;;;;6214046;23;20170;-85
2022/04/24 13:58:25;;;;;;;2.93;2.20;;;;;;;;;;6189305;23;20256;-85
2022/04/24 14:00:55;;;;;;;4.37;2.57;;;;;;;;;;6189339;23;20176;-85
2022/04/24 14:03:25;;;;;;;4.93;2.87;;;;;;;;;;6189229;23;20178;-85
2022/04/24 14:05:54;;;;;;;2.70;2.17;;;;;;;;;;6213889;23;20198;-85
2022/04/24 14:08:26;;;;;;;2.90;1.97;;;;;;;;;;6188710;23;20179;-84
2022/04/24 14:10:55;;;;;;;6.03;3.13;;;;;;;;;;6215191;23;20236;-84
2022/04/24 14:13:25;;;;;;;2.93;2.40;;;;;;;;;;6188530;23;20181;-85
2022/04/24 14:15:53;;;;;;;5.13;3.30;;;;;;;;;;6189264;23;20174;-85
2022/04/24 14:18:23;;;;;;;6.30;2.93;;;;;;;;;;6215707;23;20180;-85
2022/04/24 14:20:51;;;;;;;4.53;2.57;;;;;;;;;;6188703;23;20266;-85
2022/04/24 14:23:21;;;;;;;4.93;3.40;;;;;;;;;;6189104;23;20241;-85
2022/04/24 14:25:52;;;;;;;4.80;3.27;;;;;;;;;;6189239;23;20181;-85
2022/04/24 14:28:21;;;;;;;5.20;3.70;;;;;;;;;;6189059;23;20238;-85
2022/04/24 14:30:49;;;;;;;4.77;3.10;;;;;;;;;;6213777;23;20180;-85
2022/04/24 14:33:18;;;;;;;3.13;2.80;;;;;;;;;;6189314;23;20208;-85
2022/04/24 14:35:49;;;;;;;4.37;3.20;;;;;;;;;;6188704;23;20200;-85
2022/04/24 14:38:18;;;;;;;4.03;2.57;;;;;;;;;;6204194;23;20257;-85
2022/04/24 14:40:46;;;;;;;5.90;4.17;;;;;;;;;;6188921;23;20170;-85
2022/04/24 14:43:15;;;;;;;4.20;2.73;;;;;;;;;;6214835;23;20173;-85
2022/04/24 14:56:49;;;;;;;6.23;3.50;;;;;;;;;;6189200;23;20178;-84
2022/04/24 14:59:17;;;;;;;4.87;3.40;;;;;;;;;;6188485;23;20205;-85
2022/04/24 15:01:46;;;;;;;6.27;4.43;;;;;;;;;;6213525;23;20177;-85
2022/04/24 15:04:14;;;;;;;3.63;3.23;;;;;;;;;;6188570;23;20182;-85
2022/04/24 15:06:44;;;;;;;2.63;2.23;;;;;;;;;;6188320;23;20201;-85
2022/04/24 15:09:13;;;;;;;2.53;2.33;;;;;;;;;;6189153;23;20177;-85
2022/04/24 15:11:42;;;;;;;3.23;2.80;;;;;;;;;;6188606;23;20277;-85
2022/04/24 15:14:10;;;;;;;4.43;3.00;;;;;;;;;;6188464;23;20246;-85
2022/04/24 15:16:39;;;;;;;2.57;2.37;;;;;;;;;;6188220;23;20543;-84
2022/04/24 15:19:07;;;;;;;4.73;3.00;;;;;;;;;;6189275;23;20178;-85